sensor_id;sensor_type;location;lat;lon;timestamp;pressure;altitude;pressure_sealevel;temperature;humidity
5595;BME280;1003;48.002;7.788;2022-10-16T00:01:19;98576.78;;;14.58;100.00
5595;BME280;1003;48.002;7.788;2022-10-16T00:03:49;98574.41;;;14.55;100.00
5595;BME280;1003;48.002;7.788;2022-10-16T00:06:19;98573.28;;;14.62;100.00
5595;BME280;1003;48.002;7.788;2022-10-16T00:08:48;98565.47;;;14.68;100.00
5595;BME280;1003;48.002;7.788;2022-10-16T00:11:18;98574.06;;;14.64;100.00
5595;BME280;1003;48.002;7.788;2022-10-16T00:13:48;98579.06;;;14.65;100.00
5595;BME280;1003;48.002;7.788;2022-10-16T00:16:16;98578.19;;;14.66;100.00
5595;BME280;1003;48.002;7.788;2022-10-16T00:18:44;98579.72;;;14.70;100.00
5595;BME280;1003;48.002;7.788;2022-10-16T00:21:15;98577.34;;;14.66;100.00
5595;BME280;1003;48.002;7.788;2022-10-16T00:23:43;98578.34;;;14.62;100.00
5595;BME280;1003;48.002;7.788;2022-10-16T00:26:16;98576.03;;;14.56;100.00
5595;BME280;1003;48.002;7.788;2022-10-16T00:28:46;98581.19;;;14.53;100.00
5595;BME280;1003;48.002;7.788;2022-10-16T00:31:14;98579.53;;;14.52;100.00
5595;BME280;1003;48.002;7.788;2022-10-16T00:33:41;98587.97;;;14.52;100.00
5595;BME280;1003;48.002;7.788;2022-10-16T00:36:14;98576.84;;;14.56;100.00
5595;BME280;1003;48.002;7.788;2022-10-16T00:38:42;98581.00;;;14.59;100.00
5595;BME280;1003;48.002;7.788;2022-10-16T00:41:13;98571.09;;;14.76;100.00
5595;BME280;1003;48.002;7.788;2022-10-16T00:43:44;98575.34;;;14.74;100.00
5595;BME280;1003;48.002;7.788;2022-10-16T00:46:17;98580.53;;;14.71;100.00
5595;BME280;1003;48.002;7.788;2022-10-16T00:48:51;98588.78;;;14.76;100.00
5595;BME280;1003;48.002;7.788;2022-10-16T00:51:25;98586.25;;;14.76;100.00
5595;BME280;1003;48.002;7.788;2022-10-16T00:53:56;98587.97;;;14.76;100.00
5595;BME280;1003;48.002;7.788;2022-10-16T00:56:23;98595.50;;;14.77;100.00
5595;BME280;1003;48.002;7.788;2022-10-16T00:58:50;98600.56;;;14.77;100.00
5595;BME280;1003;48.002;7.788;2022-10-16T01:01:17;98608.97;;;14.78;100.00
5595;BME280;1003;48.002;7.788;2022-10-16T01:03:45;98610.25;;;14.66;100.00
5595;BME280;1003;48.002;7.788;2022-10-16T01:06:24;98608.00;;;14.58;100.00
5595;BME280;1003;48.002;7.788;2022-10-16T01:09:12;98613.25;;;14.52;100.00
5595;BME280;1003;48.002;7.788;2022-10-16T01:11:50;98610.84;;;14.49;100.00
5595;BME280;1003;48.002;7.788;2022-10-16T01:14:28;98611.78;;;14.45;100.00
5595;BME280;1003;48.002;7.788;2022-10-16T01:17:04;98615.28;;;14.41;100.00
5595;BME280;1003;48.002;7.788;2022-10-16T01:20:00;98617.88;;;14.39;100.00
5595;BME280;1003;48.002;7.788;2022-10-16T01:22:44;98611.25;;;14.37;100.00
5595;BME280;1003;48.002;7.788;2022-10-16T01:25:28;98613.03;;;14.33;100.00
5595;BME280;1003;48.002;7.788;2022-10-16T01:28:01;98619.00;;;14.31;100.00
5595;BME280;1003;48.002;7.788;2022-10-16T01:30:32;98621.75;;;14.25;100.00
5595;BME280;1003;48.002;7.788;2022-10-16T01:33:08;98626.09;;;14.21;100.00
5595;BME280;1003;48.002;7.788;2022-10-16T01:35:41;98618.69;;;14.16;100.00
5595;BME280;1003;48.002;7.788;2022-10-16T01:38:17;98611.97;;;14.15;100.00
5595;BME280;1003;48.002;7.788;2022-10-16T01:40:51;98594.31;;;14.14;100.00
5595;BME280;1003;48.002;7.788;2022-10-16T01:43:26;98590.81;;;14.18;100.00
5595;BME280;1003;48.002;7.788;2022-10-16T01:45:56;98592.47;;;14.19;100.00
5595;BME280;1003;48.002;7.788;2022-10-16T01:48:24;98600.00;;;14.21;100.00
5595;BME280;1003;48.002;7.788;2022-10-16T01:50:58;98599.00;;;14.25;100.00
5595;BME280;1003;48.002;7.788;2022-10-16T01:53:27;98596.47;;;14.25;100.00
5595;BME280;1003;48.002;7.788;2022-10-16T01:55:57;98583.69;;;14.29;100.00
5595;BME280;1003;48.002;7.788;2022-10-16T01:58:29;98578.91;;;14.45;100.00
5595;BME280;1003;48.002;7.788;2022-10-16T02:01:02;98577.53;;;14.36;100.00
5595;BME280;1003;48.002;7.788;2022-10-16T02:03:33;98583.53;;;14.34;100.00
5595;BME280;1003;48.002;7.788;2022-10-16T02:06:01;98586.88;;;14.34;100.00
5595;BME280;1003;48.002;7.788;2022-10-16T02:08:29;98586.81;;;14.36;100.00
5595;BME280;1003;48.002;7.788;2022-10-16T02:10:59;98594.31;;;14.39;100.00
5595;BME280;1003;48.002;7.788;2022-10-16T02:13:34;98591.78;;;14.39;100.00
5595;BME280;1003;48.002;7.788;2022-10-16T02:16:05;98591.84;;;14.37;100.00
5595;BME280;1003;48.002;7.788;2022-10-16T02:18:32;98590.28;;;14.33;100.00
5595;BME280;1003;48.002;7.788;2022-10-16T02:21:02;98597.00;;;14.34;100.00
5595;BME280;1003;48.002;7.788;2022-10-16T02:23:57;98598.84;;;14.54;100.00
5595;BME280;1003;48.002;7.788;2022-10-16T02:26:31;98599.06;;;14.47;100.00
5595;BME280;1003;48.002;7.788;2022-10-16T02:29:11;98598.13;;;14.26;100.00
5595;BME280;1003;48.002;7.788;2022-10-16T02:31:43;98592.66;;;14.13;100.00
5595;BME280;1003;48.002;7.788;2022-10-16T02:34:14;98592.00;;;14.08;100.00
5595;BME280;1003;48.002;7.788;2022-10-16T02:36:44;98600.41;;;14.08;100.00
5595;BME280;1003;48.002;7.788;2022-10-16T02:39:14;98590.50;;;14.02;100.00
5595;BME280;1003;48.002;7.788;2022-10-16T02:41:42;98596.59;;;13.97;100.00
5595;BME280;1003;48.002;7.788;2022-10-16T02:44:11;98608.41;;;13.96;100.00
5595;BME280;1003;48.002;7.788;2022-10-16T02:46:38;98604.03;;;14.01;100.00
5595;BME280;1003;48.002;7.788;2022-10-16T02:49:05;98600.59;;;14.02;100.00
5595;BME280;1003;48.002;7.788;2022-10-16T02:51:32;98608.78;;;14.10;100.00
5595;BME280;1003;48.002;7.788;2022-10-16T02:53:59;98602.94;;;14.08;100.00
5595;BME280;1003;48.002;7.788;2022-10-16T02:56:26;98611.91;;;14.17;100.00
5595;BME280;1003;48.002;7.788;2022-10-16T02:58:53;98613.56;;;14.18;100.00
5595;BME280;1003;48.002;7.788;2022-10-16T03:01:22;98620.59;;;14.10;100.00
5595;BME280;1003;48.002;7.788;2022-10-16T03:03:49;98609.00;;;14.03;100.00
5595;BME280;1003;48.002;7.788;2022-10-16T03:06:16;98609.00;;;14.03;100.00
5595;BME280;1003;48.002;7.788;2022-10-16T03:08:43;98602.38;;;14.00;100.00
5595;BME280;1003;48.002;7.788;2022-10-16T03:11:10;98602.47;;;13.97;100.00
5595;BME280;1003;48.002;7.788;2022-10-16T03:13:37;98609.22;;;13.97;100.00
5595;BME280;1003;48.002;7.788;2022-10-16T03:16:04;98609.91;;;14.02;100.00
5595;BME280;1003;48.002;7.788;2022-10-16T03:18:33;98604.94;;;13.99;100.00
5595;BME280;1003;48.002;7.788;2022-10-16T03:21:00;98610.72;;;14.02;100.00
5595;BME280;1003;48.002;7.788;2022-10-16T03:23:27;98598.03;;;14.04;100.00
5595;BME280;1003;48.002;7.788;2022-10-16T03:25:54;98602.94;;;14.08;100.00
5595;BME280;1003;48.002;7.788;2022-10-16T03:28:21;98593.56;;;14.12;100.00
5595;BME280;1003;48.002;7.788;2022-10-16T03:30:48;98592.53;;;14.17;100.00
5595;BME280;1003;48.002;7.788;2022-10-16T03:33:15;98590.72;;;14.21;100.00
5595;BME280;1003;48.002;7.788;2022-10-16T03:35:51;98596.53;;;14.23;100.00
5595;BME280;1003;48.002;7.788;2022-10-16T03:38:20;98593.06;;;14.26;100.00
5595;BME280;1003;48.002;7.788;2022-10-16T03:40:47;98598.03;;;14.29;100.00
5595;BME280;1003;48.002;7.788;2022-10-16T03:43:15;98597.88;;;14.33;100.00
5595;BME280;1003;48.002;7.788;2022-10-16T03:45:42;98607.69;;;14.42;100.00
5595;BME280;1003;48.002;7.788;2022-10-16T03:48:09;98606.88;;;14.40;100.00
5595;BME280;1003;48.002;7.788;2022-10-16T03:50:36;98608.88;;;14.32;100.00
5595;BME280;1003;48.002;7.788;2022-10-16T03:53:05;98607.31;;;14.28;100.00
5595;BME280;1003;48.002;7.788;2022-10-16T03:55:32;98609.91;;;14.27;100.00
5595;BME280;1003;48.002;7.788;2022-10-16T03:57:59;98601.94;;;14.37;100.00
5595;BME280;1003;48.002;7.788;2022-10-16T04:00:27;98611.88;;;14.42;100.00
5595;BME280;1003;48.002;7.788;2022-10-16T04:02:54;98604.78;;;14.28;100.00
5595;BME280;1003;48.002;7.788;2022-10-16T04:05:21;98605.75;;;14.24;100.00
5595;BME280;1003;48.002;7.788;2022-10-16T04:07:48;98614.31;;;14.20;100.00
5595;BME280;1003;48.002;7.788;2022-10-16T04:10:16;98616.00;;;14.21;100.00
5595;BME280;1003;48.002;7.788;2022-10-16T04:12:43;98616.75;;;14.23;100.00
5595;BME280;1003;48.002;7.788;2022-10-16T04:15:10;98604.13;;;14.23;100.00
5595;BME280;1003;48.002;7.788;2022-10-16T04:17:37;98610.75;;;14.26;100.00
5595;BME280;1003;48.002;7.788;2022-10-16T04:20:06;98617.44;;;14.28;100.00
5595;BME280;1003;48.002;7.788;2022-10-16T04:22:33;98615.66;;;14.30;100.00
5595;BME280;1003;48.002;7.788;2022-10-16T04:25:00;98623.25;;;14.30;100.00
5595;BME280;1003;48.002;7.788;2022-10-16T04:27:28;98617.44;;;14.28;100.00
5595;BME280;1003;48.002;7.788;2022-10-16T04:29:57;98625.78;;;14.30;100.00
5595;BME280;1003;48.002;7.788;2022-10-16T04:32:24;98617.97;;;14.36;100.00
5595;BME280;1003;48.002;7.788;2022-10-16T04:34:52;98616.78;;;14.47;100.00
5595;BME280;1003;48.002;7.788;2022-10-16T04:37:19;98617.44;;;14.53;100.00
5595;BME280;1003;48.002;7.788;2022-10-16T04:39:49;98620.63;;;14.58;100.00
5595;BME280;1003;48.002;7.788;2022-10-16T04:42:16;98616.94;;;14.67;100.00
5595;BME280;1003;48.002;7.788;2022-10-16T04:44:45;98620.44;;;14.63;100.00
5595;BME280;1003;48.002;7.788;2022-10-16T04:47:12;98616.41;;;14.59;100.00
5595;BME280;1003;48.002;7.788;2022-10-16T04:49:40;98613.91;;;14.57;100.00
5595;BME280;1003;48.002;7.788;2022-10-16T04:52:07;98607.03;;;14.61;100.00
5595;BME280;1003;48.002;7.788;2022-10-16T04:54:35;98611.00;;;14.68;100.00
5595;BME280;1003;48.002;7.788;2022-10-16T04:57:02;98623.88;;;14.85;100.00
5595;BME280;1003;48.002;7.788;2022-10-16T04:59:30;98624.47;;;14.92;100.00
5595;BME280;1003;48.002;7.788;2022-10-16T05:01:59;98628.69;;;15.15;100.00
5595;BME280;1003;48.002;7.788;2022-10-16T05:04:26;98651.94;;;15.25;100.00
5595;BME280;1003;48.002;7.788;2022-10-16T05:06:53;98655.81;;;15.11;100.00
5595;BME280;1003;48.002;7.788;2022-10-16T05:09:20;98672.44;;;14.95;100.00
5595;BME280;1003;48.002;7.788;2022-10-16T05:11:47;98668.63;;;14.83;100.00
5595;BME280;1003;48.002;7.788;2022-10-16T05:14:14;98680.56;;;14.80;100.00
5595;BME280;1003;48.002;7.788;2022-10-16T05:16:41;98691.25;;;14.88;100.00
5595;BME280;1003;48.002;7.788;2022-10-16T05:19:09;98686.63;;;14.76;100.00
5595;BME280;1003;48.002;7.788;2022-10-16T05:21:37;98687.97;;;14.61;100.00
5595;BME280;1003;48.002;7.788;2022-10-16T05:24:04;98684.84;;;14.54;100.00
5595;BME280;1003;48.002;7.788;2022-10-16T05:26:31;98687.41;;;14.53;100.00
5595;BME280;1003;48.002;7.788;2022-10-16T05:28:58;98694.34;;;14.48;100.00
5595;BME280;1003;48.002;7.788;2022-10-16T05:31:25;98681.81;;;14.43;100.00
5595;BME280;1003;48.002;7.788;2022-10-16T05:33:52;98681.81;;;14.43;100.00
5595;BME280;1003;48.002;7.788;2022-10-16T05:36:26;98675.09;;;14.42;100.00
5595;BME280;1003;48.002;7.788;2022-10-16T05:38:53;98677.63;;;14.42;100.00
5595;BME280;1003;48.002;7.788;2022-10-16T05:41:20;98679.16;;;14.46;100.00
5595;BME280;1003;48.002;7.788;2022-10-16T05:43:49;98673.22;;;14.49;100.00
5595;BME280;1003;48.002;7.788;2022-10-16T05:46:16;98670.59;;;14.52;100.00
5595;BME280;1003;48.002;7.788;2022-10-16T05:48:43;98663.56;;;14.60;100.00
5595;BME280;1003;48.002;7.788;2022-10-16T05:51:13;98672.66;;;14.65;100.00
5595;BME280;1003;48.002;7.788;2022-10-16T05:53:42;98674.06;;;14.73;100.00
5595;BME280;1003;48.002;7.788;2022-10-16T05:56:11;98678.16;;;14.77;100.00
5595;BME280;1003;48.002;7.788;2022-10-16T05:58:39;98687.28;;;14.81;100.00
5595;BME280;1003;48.002;7.788;2022-10-16T06:01:10;98684.63;;;14.84;100.00
5595;BME280;1003;48.002;7.788;2022-10-16T06:03:38;98685.16;;;14.93;100.00
5595;BME280;1003;48.002;7.788;2022-10-16T06:06:10;98687.78;;;14.90;100.00
5595;BME280;1003;48.002;7.788;2022-10-16T06:08:38;98688.66;;;14.89;100.00
5595;BME280;1003;48.002;7.788;2022-10-16T06:11:10;98697.78;;;14.93;100.00
5595;BME280;1003;48.002;7.788;2022-10-16T06:13:38;98700.91;;;15.02;100.00
5595;BME280;1003;48.002;7.788;2022-10-16T06:16:08;98713.84;;;15.16;100.00
5595;BME280;1003;48.002;7.788;2022-10-16T06:18:36;98719.41;;;15.26;100.00
5595;BME280;1003;48.002;7.788;2022-10-16T06:21:09;98727.91;;;15.25;100.00
5595;BME280;1003;48.002;7.788;2022-10-16T06:23:36;98740.00;;;15.16;100.00
5595;BME280;1003;48.002;7.788;2022-10-16T06:26:09;98751.38;;;15.05;100.00
5595;BME280;1003;48.002;7.788;2022-10-16T06:28:37;98748.25;;;14.98;100.00
5595;BME280;1003;48.002;7.788;2022-10-16T06:31:07;98755.91;;;14.96;100.00
5595;BME280;1003;48.002;7.788;2022-10-16T06:33:34;98750.28;;;14.88;100.00
5595;BME280;1003;48.002;7.788;2022-10-16T06:36:03;98760.19;;;14.94;100.00
5595;BME280;1003;48.002;7.788;2022-10-16T06:38:31;98782.78;;;14.99;100.00
5595;BME280;1003;48.002;7.788;2022-10-16T06:40:58;98774.38;;;14.99;100.00
5595;BME280;1003;48.002;7.788;2022-10-16T06:43:29;98776.19;;;14.95;100.00
5595;BME280;1003;48.002;7.788;2022-10-16T06:45:59;98769.53;;;14.92;100.00
5595;BME280;1003;48.002;7.788;2022-10-16T06:48:27;98760.19;;;14.94;100.00
5595;BME280;1003;48.002;7.788;2022-10-16T06:50:57;98763.50;;;14.96;100.00
5595;BME280;1003;48.002;7.788;2022-10-16T06:53:25;98776.03;;;15.00;100.00
5595;BME280;1003;48.002;7.788;2022-10-16T06:55:52;98776.47;;;15.11;100.00
5595;BME280;1003;48.002;7.788;2022-10-16T06:58:19;98790.78;;;15.12;100.00
5595;BME280;1003;48.002;7.788;2022-10-16T07:00:49;98799.28;;;15.34;100.00
5595;BME280;1003;48.002;7.788;2022-10-16T07:03:16;98796.09;;;15.29;100.00
5595;BME280;1003;48.002;7.788;2022-10-16T07:05:43;98798.94;;;15.20;100.00
5595;BME280;1003;48.002;7.788;2022-10-16T07:08:10;98816.84;;;15.39;100.00
5595;BME280;1003;48.002;7.788;2022-10-16T07:10:37;98798.56;;;15.31;100.00
5595;BME280;1003;48.002;7.788;2022-10-16T07:13:04;98802.69;;;15.33;100.00
5595;BME280;1003;48.002;7.788;2022-10-16T07:15:33;98817.97;;;15.55;100.00
5595;BME280;1003;48.002;7.788;2022-10-16T07:18:02;98815.31;;;15.58;100.00
5595;BME280;1003;48.002;7.788;2022-10-16T07:20:29;98816.94;;;15.59;100.00
5595;BME280;1003;48.002;7.788;2022-10-16T07:22:56;98831.09;;;15.66;100.00
5595;BME280;1003;48.002;7.788;2022-10-16T07:25:23;98837.44;;;15.77;100.00
5595;BME280;1003;48.002;7.788;2022-10-16T07:27:50;98834.00;;;15.79;100.00
5595;BME280;1003;48.002;7.788;2022-10-16T07:30:17;98841.03;;;15.94;100.00
5595;BME280;1003;48.002;7.788;2022-10-16T07:32:44;98839.16;;;15.99;100.00
5595;BME280;1003;48.002;7.788;2022-10-16T07:35:13;98840.91;;;15.97;100.00
5595;BME280;1003;48.002;7.788;2022-10-16T07:37:44;98841.97;;;16.14;100.00
5595;BME280;1003;48.002;7.788;2022-10-16T07:40:12;98855.44;;;16.16;100.00
5595;BME280;1003;48.002;7.788;2022-10-16T07:42:39;98856.19;;;16.18;100.00
5595;BME280;1003;48.002;7.788;2022-10-16T07:45:07;98861.03;;;16.24;100.00
5595;BME280;1003;48.002;7.788;2022-10-16T07:47:34;98869.41;;;16.48;100.00
5595;BME280;1003;48.002;7.788;2022-10-16T07:50:02;98880.84;;;16.58;100.00
5595;BME280;1003;48.002;7.788;2022-10-16T07:52:30;98879.06;;;16.60;100.00
5595;BME280;1003;48.002;7.788;2022-10-16T07:54:57;98879.72;;;16.65;100.00
5595;BME280;1003;48.002;7.788;2022-10-16T07:57:24;98877.50;;;16.79;100.00
5595;BME280;1003;48.002;7.788;2022-10-16T07:59:51;98864.88;;;16.98;100.00
5595;BME280;1003;48.002;7.788;2022-10-16T08:02:18;98872.03;;;17.09;100.00
5595;BME280;1003;48.002;7.788;2022-10-16T08:04:46;98888.09;;;17.30;100.00
5595;BME280;1003;48.002;7.788;2022-10-16T08:07:14;98888.19;;;17.47;100.00
5595;BME280;1003;48.002;7.788;2022-10-16T08:09:42;98892.56;;;17.64;100.00
5595;BME280;1003;48.002;7.788;2022-10-16T08:12:09;98894.66;;;17.75;100.00
5595;BME280;1003;48.002;7.788;2022-10-16T08:14:36;98901.69;;;17.89;100.00
5595;BME280;1003;48.002;7.788;2022-10-16T08:17:03;98910.19;;;18.06;100.00
5595;BME280;1003;48.002;7.788;2022-10-16T08:19:30;98905.66;;;18.13;100.00
5595;BME280;1003;48.002;7.788;2022-10-16T08:22:00;98901.06;;;18.21;100.00
5595;BME280;1003;48.002;7.788;2022-10-16T08:24:27;98910.06;;;18.28;100.00
5595;BME280;1003;48.002;7.788;2022-10-16T08:26:57;98922.16;;;18.42;100.00
5595;BME280;1003;48.002;7.788;2022-10-16T08:29:24;98921.34;;;18.59;100.00
5595;BME280;1003;48.002;7.788;2022-10-16T08:31:51;98929.81;;;18.78;100.00
5595;BME280;1003;48.002;7.788;2022-10-16T08:34:19;98934.47;;;18.87;100.00
5595;BME280;1003;48.002;7.788;2022-10-16T08:36:46;98935.59;;;18.99;100.00
5595;BME280;1003;48.002;7.788;2022-10-16T08:39:13;98941.81;;;19.11;100.00
5595;BME280;1003;48.002;7.788;2022-10-16T08:42:31;98936.81;;;19.27;100.00
5595;BME280;1003;48.002;7.788;2022-10-16T08:45:37;98940.47;;;19.38;100.00
5595;BME280;1003;48.002;7.788;2022-10-16T08:48:20;98930.03;;;19.43;100.00
5595;BME280;1003;48.002;7.788;2022-10-16T08:50:52;98943.22;;;19.51;100.00
5595;BME280;1003;48.002;7.788;2022-10-16T08:53:24;98953.50;;;19.67;100.00
5595;BME280;1003;48.002;7.788;2022-10-16T08:55:54;98952.25;;;19.74;100.00
5595;BME280;1003;48.002;7.788;2022-10-16T08:58:28;98964.47;;;19.85;100.00
5595;BME280;1003;48.002;7.788;2022-10-16T09:00:58;98957.25;;;19.93;100.00
5595;BME280;1003;48.002;7.788;2022-10-16T09:03:52;98965.75;;;20.09;100.00
5595;BME280;1003;48.002;7.788;2022-10-16T09:06:34;98966.59;;;20.26;100.00
5595;BME280;1003;48.002;7.788;2022-10-16T09:09:47;98974.78;;;20.48;100.00
5595;BME280;1003;48.002;7.788;2022-10-16T09:12:22;98975.25;;;20.70;100.00
5595;BME280;1003;48.002;7.788;2022-10-16T09:15:02;98981.16;;;20.87;100.00
5595;BME280;1003;48.002;7.788;2022-10-16T09:17:45;98984.16;;;21.09;100.00
5595;BME280;1003;48.002;7.788;2022-10-16T09:20:28;98987.41;;;21.27;100.00
5595;BME280;1003;48.002;7.788;2022-10-16T09:23:12;98996.25;;;21.52;100.00
5595;BME280;1003;48.002;7.788;2022-10-16T09:25:44;98991.63;;;21.72;100.00
5595;BME280;1003;48.002;7.788;2022-10-16T09:28:11;99004.44;;;22.01;100.00
5595;BME280;1003;48.002;7.788;2022-10-16T09:30:40;98995.13;;;22.29;100.00
5595;BME280;1003;48.002;7.788;2022-10-16T09:33:10;98993.59;;;22.53;100.00
5595;BME280;1003;48.002;7.788;2022-10-16T09:35:42;99000.34;;;22.54;98.84
5595;BME280;1003;48.002;7.788;2022-10-16T09:38:21;98992.69;;;22.81;100.00
5595;BME280;1003;48.002;7.788;2022-10-16T09:40:49;98993.44;;;23.10;100.00
5595;BME280;1003;48.002;7.788;2022-10-16T09:43:23;98990.09;;;23.48;100.00
5595;BME280;1003;48.002;7.788;2022-10-16T09:46:03;98984.25;;;23.58;80.47
5595;BME280;1003;48.002;7.788;2022-10-16T09:48:37;98998.81;;;24.09;78.58
5595;BME280;1003;48.002;7.788;2022-10-16T09:51:17;98992.94;;;24.32;83.77
5595;BME280;1003;48.002;7.788;2022-10-16T09:53:46;98997.75;;;24.50;74.52
5595;BME280;1003;48.002;7.788;2022-10-16T09:56:24;98996.72;;;24.76;73.82
5595;BME280;1003;48.002;7.788;2022-10-16T09:58:52;98998.50;;;24.87;74.12
5595;BME280;1003;48.002;7.788;2022-10-16T10:01:25;99003.09;;;24.95;70.21
5595;BME280;1003;48.002;7.788;2022-10-16T10:03:57;99006.75;;;25.03;71.89
5595;BME280;1003;48.002;7.788;2022-10-16T10:06:30;98998.31;;;25.01;72.81
5595;BME280;1003;48.002;7.788;2022-10-16T10:09:04;98997.03;;;25.20;65.96
5595;BME280;1003;48.002;7.788;2022-10-16T10:11:51;99002.06;;;25.32;67.74
5595;BME280;1003;48.002;7.788;2022-10-16T10:14:27;99005.28;;;25.47;69.09
5595;BME280;1003;48.002;7.788;2022-10-16T10:17:12;99006.69;;;25.51;69.79
5595;BME280;1003;48.002;7.788;2022-10-16T10:19:46;99010.91;;;25.52;75.24
5595;BME280;1003;48.002;7.788;2022-10-16T10:22:28;99008.03;;;25.33;68.32
5595;BME280;1003;48.002;7.788;2022-10-16T10:25:01;99011.44;;;25.45;67.62
5595;BME280;1003;48.002;7.788;2022-10-16T10:27:47;99009.81;;;25.44;64.66
5595;BME280;1003;48.002;7.788;2022-10-16T10:30:24;99004.66;;;25.44;62.52
5595;BME280;1003;48.002;7.788;2022-10-16T10:33:12;99003.03;;;25.43;64.61
5595;BME280;1003;48.002;7.788;2022-10-16T10:35:51;99000.00;;;25.49;60.92
5595;BME280;1003;48.002;7.788;2022-10-16T10:38:32;99004.00;;;25.53;59.03
5595;BME280;1003;48.002;7.788;2022-10-16T10:42:07;98997.97;;;25.76;60.46
5595;BME280;1003;48.002;7.788;2022-10-16T10:45:01;98995.16;;;26.02;56.56
5595;BME280;1003;48.002;7.788;2022-10-16T10:47:46;98998.34;;;26.05;55.56
5595;BME280;1003;48.002;7.788;2022-10-16T10:50:25;98994.34;;;26.01;58.31
5595;BME280;1003;48.002;7.788;2022-10-16T10:53:02;98992.59;;;26.02;54.09
5595;BME280;1003;48.002;7.788;2022-10-16T10:55:40;98994.22;;;26.03;55.58
5595;BME280;1003;48.002;7.788;2022-10-16T10:58:42;98997.50;;;25.82;55.46
5595;BME280;1003;48.002;7.788;2022-10-16T11:01:16;99001.25;;;25.78;55.20
5595;BME280;1003;48.002;7.788;2022-10-16T11:04:10;99002.28;;;25.87;56.15
5595;BME280;1003;48.002;7.788;2022-10-16T11:06:50;99002.88;;;25.79;58.90
5595;BME280;1003;48.002;7.788;2022-10-16T11:09:24;98999.00;;;25.74;55.72
5595;BME280;1003;48.002;7.788;2022-10-16T11:11:59;99001.72;;;25.83;57.55
5595;BME280;1003;48.002;7.788;2022-10-16T11:14:34;98994.47;;;25.88;58.03
5595;BME280;1003;48.002;7.788;2022-10-16T11:17:11;98998.22;;;25.96;60.54
5595;BME280;1003;48.002;7.788;2022-10-16T11:19:46;98987.69;;;26.10;61.30
5595;BME280;1003;48.002;7.788;2022-10-16T11:22:24;98987.88;;;26.18;53.33
5595;BME280;1003;48.002;7.788;2022-10-16T11:24:58;98986.22;;;26.28;55.59
5595;BME280;1003;48.002;7.788;2022-10-16T11:27:37;98986.22;;;26.51;57.00
5595;BME280;1003;48.002;7.788;2022-10-16T11:30:14;98983.81;;;26.70;50.66
5595;BME280;1003;48.002;7.788;2022-10-16T11:32:56;98986.66;;;26.56;52.27
5595;BME280;1003;48.002;7.788;2022-10-16T11:35:39;98989.44;;;26.75;53.79
5595;BME280;1003;48.002;7.788;2022-10-16T11:38:21;98989.16;;;26.78;54.10
5595;BME280;1003;48.002;7.788;2022-10-16T11:40:53;98988.69;;;26.84;54.94
5595;BME280;1003;48.002;7.788;2022-10-16T11:43:28;98985.50;;;26.92;55.27
5595;BME280;1003;48.002;7.788;2022-10-16T11:46:07;98991.53;;;27.13;53.81
5595;BME280;1003;48.002;7.788;2022-10-16T11:48:46;98983.00;;;27.23;49.92
5595;BME280;1003;48.002;7.788;2022-10-16T11:51:25;98979.88;;;27.19;50.77
5595;BME280;1003;48.002;7.788;2022-10-16T11:54:05;98978.75;;;27.01;54.25
5595;BME280;1003;48.002;7.788;2022-10-16T11:56:39;98969.69;;;26.85;50.60
5595;BME280;1003;48.002;7.788;2022-10-16T11:59:18;98971.56;;;26.83;52.21
5595;BME280;1003;48.002;7.788;2022-10-16T12:01:56;98977.25;;;26.98;52.71
5595;BME280;1003;48.002;7.788;2022-10-16T12:04:31;98973.41;;;26.92;51.86
5595;BME280;1003;48.002;7.788;2022-10-16T12:07:07;98967.59;;;26.79;50.29
5595;BME280;1003;48.002;7.788;2022-10-16T12:09:39;98977.53;;;26.84;50.11
5595;BME280;1003;48.002;7.788;2022-10-16T12:12:26;98966.47;;;26.72;50.49
5595;BME280;1003;48.002;7.788;2022-10-16T12:15:02;98964.69;;;26.73;52.33
5595;BME280;1003;48.002;7.788;2022-10-16T12:17:36;98964.03;;;26.91;53.78
5595;BME280;1003;48.002;7.788;2022-10-16T12:20:27;98964.31;;;26.77;57.26
5595;BME280;1003;48.002;7.788;2022-10-16T12:22:59;98967.63;;;26.68;58.08
5595;BME280;1003;48.002;7.788;2022-10-16T12:25:31;98964.38;;;26.66;57.50
5595;BME280;1003;48.002;7.788;2022-10-16T12:28:04;98968.03;;;26.84;52.12
5595;BME280;1003;48.002;7.788;2022-10-16T12:30:36;98968.34;;;26.70;54.12
5595;BME280;1003;48.002;7.788;2022-10-16T12:33:15;98965.50;;;26.73;53.69
5595;BME280;1003;48.002;7.788;2022-10-16T12:35:46;98965.81;;;26.59;54.49
5595;BME280;1003;48.002;7.788;2022-10-16T12:38:18;98955.97;;;26.64;52.95
5595;BME280;1003;48.002;7.788;2022-10-16T12:40:58;98953.13;;;26.67;52.70
5595;BME280;1003;48.002;7.788;2022-10-16T12:43:36;98947.09;;;26.46;54.29
5595;BME280;1003;48.002;7.788;2022-10-16T12:46:21;98944.28;;;26.49;52.70
5595;BME280;1003;48.002;7.788;2022-10-16T12:48:49;98941.94;;;26.34;52.63
5595;BME280;1003;48.002;7.788;2022-10-16T12:51:33;98942.84;;;26.01;55.25
5595;BME280;1003;48.002;7.788;2022-10-16T12:54:02;98940.41;;;25.88;56.52
5595;BME280;1003;48.002;7.788;2022-10-16T12:56:43;98939.31;;;25.69;57.63
5595;BME280;1003;48.002;7.788;2022-10-16T12:59:29;98942.56;;;25.48;58.40
5595;BME280;1003;48.002;7.788;2022-10-16T13:03:09;98943.59;;;25.34;58.68
5595;BME280;1003;48.002;7.788;2022-10-16T13:05:57;98934.09;;;25.24;56.69
5595;BME280;1003;48.002;7.788;2022-10-16T13:08:47;98949.66;;;25.22;61.51
5595;BME280;1003;48.002;7.788;2022-10-16T13:11:26;98935.84;;;25.12;58.80
5595;BME280;1003;48.002;7.788;2022-10-16T13:14:22;98941.75;;;25.01;63.70
5595;BME280;1003;48.002;7.788;2022-10-16T13:17:06;98945.31;;;24.76;59.70
5595;BME280;1003;48.002;7.788;2022-10-16T13:19:46;98934.09;;;24.77;60.69
5595;BME280;1003;48.002;7.788;2022-10-16T13:22:24;98937.97;;;24.59;62.92
5595;BME280;1003;48.002;7.788;2022-10-16T13:25:13;98935.25;;;24.49;62.39
5595;BME280;1003;48.002;7.788;2022-10-16T13:27:54;98939.00;;;24.56;61.31
5595;BME280;1003;48.002;7.788;2022-10-16T13:30:26;98935.63;;;24.56;58.72
5595;BME280;1003;48.002;7.788;2022-10-16T13:33:01;98942.28;;;24.58;62.13
5595;BME280;1003;48.002;7.788;2022-10-16T13:35:31;98941.66;;;24.44;60.89
5595;BME280;1003;48.002;7.788;2022-10-16T13:38:12;98941.84;;;24.41;58.97
5595;BME280;1003;48.002;7.788;2022-10-16T13:40:53;98939.50;;;24.38;59.61
5595;BME280;1003;48.002;7.788;2022-10-16T13:43:26;98939.19;;;24.29;59.25
5595;BME280;1003;48.002;7.788;2022-10-16T13:46:02;98942.63;;;24.17;58.12